Aérodrome :
LOGIN :

S'inscrire | Disclaimer

   EN    FR    IT 

 










Légende :    VFR   VFR Marginal   IFR   IFR Intensif   IFR Très Intensif
Visi : 
Plafond : 
>= 8 km
>= 3000ft
5 à 8 km
1000 à 3000 ft
1500m à 5 km
500 à 1000 ft
800 à 1500m
200 à 500 ft
< 800m
< 200 ft
Symboles :   Orages  Brouillard  Fortes neiges  Fortes précipitations  Vent > 20 kt
SIGMETs :   Divers  Orages  Givrage  Turbulence  Onde Orograph.  Cendres Volcan.







- Altitude de l'aérodrome : 1475 ft


LSZC - Buochs Stans

DERNIER METAR :
  • 201350Z 17003KT 100V250 9999 FEW070 26/15 Q1019

METARs EXPIRÉS :
  • 201320Z 08003KT 040V140 9999 FEW070 25/16 Q1020
  • 201250Z 08004KT 050V120 9999 FEW070 25/15 Q1020
  • 201220Z 07004KT 9999 FEW070 24/15 Q1020
  • 201150Z 08004KT 050V110 CAVOK 24/14 Q1021
  • 201120Z VRB02KT CAVOK 24/14 Q1021

TAF TAF LSZC
Valide du 20 à 12h jusqu'au 20 à 21h UTC


201125Z 2012/2021 VRB03KT CAVOK
TEMPO 2012/2018 9999 FEW060
Pas de NOTAMs connus pour ce terrain.



MET'MAP, la Météo Aéronautique d'un coup d'oeil ! - Copyright ORBIFLY Décembre 2007 - Disclaimer

ORBIFLY MET'MAP TEAM :

Programmation & Développement : Alexandra Zaïnal
Conception & Développement : Baudouin d'Aumeries
Co-Programmation & Développement : Marc-Olivier Méhu
Soutien technique & logistique : Manuel Goepfert

Contact : metmap@orbifly.com




SOURCES & CREDITS :

   NOAA